Time;durP1;ratioP1;P1;durP2;ratioP2;P2;SDS_P1;SDS_P2;PMS_P1;PMS_P2;Temp;Humidity;BMP_temperature;BMP_pressure;BME280_temperature;BME280_humidity;BME280_pressure;Samples;Min_cycle;Max_cycle;Signal;HPM_P1;HPM_P2
2021/09/04 00:01:34;;;;;;;17.82;11.43;;;;;;;10.98;75.67;97362.17;1801346;79;25930;-85
2021/09/04 00:04:01;;;;;;;17.55;11.28;;;;;;;10.95;75.70;97361.23;1798281;79;25822;-86
2021/09/04 00:06:28;;;;;;;17.00;11.25;;;;;;;10.92;75.71;97353.55;1777095;79;27425;-84
2021/09/04 00:08:54;;;;;;;16.87;11.12;;;;;;;10.92;75.77;97352.20;1789409;78;25717;-83
2021/09/04 00:11:22;;;;;;;15.93;10.70;;;;;;;10.89;75.79;97351.28;1769659;79;25723;-85
2021/09/04 00:13:49;;;;;;;13.88;10.45;;;;;;;10.85;75.83;97347.38;1780707;78;25818;-86
2021/09/04 00:16:15;;;;;;;16.95;10.80;;;;;;;10.85;75.95;97347.38;1777468;79;25763;-84
2021/09/04 00:18:42;;;;;;;15.78;10.63;;;;;;;10.81;75.95;97348.31;1801368;78;27431;-85
2021/09/04 00:21:09;;;;;;;16.20;10.23;;;;;;;10.76;76.00;97346.76;1796318;78;25670;-84
2021/09/04 00:23:35;;;;;;;14.70;10.75;;;;;;;10.79;76.09;97348.21;1783823;79;25691;-85
2021/09/04 00:26:02;;;;;;;14.75;9.98;;;;;;;10.75;76.03;97343.75;1801206;78;25768;-85
2021/09/04 00:28:28;;;;;;;13.98;10.08;;;;;;;10.75;75.97;97345.62;1801030;79;25875;-85
2021/09/04 00:30:55;;;;;;;14.43;9.85;;;;;;;10.74;75.97;97351.57;1801347;78;27594;-83
2021/09/04 00:33:21;;;;;;;14.45;10.08;;;;;;;10.72;75.90;97341.50;1801261;78;25373;-86
2021/09/04 00:35:48;;;;;;;18.40;8.98;;;;;;;10.69;75.94;97351.89;1782931;78;26394;-86
2021/09/04 00:38:15;;;;;;;13.58;9.60;;;;;;;10.67;75.89;97345.87;1797541;78;26489;-86
2021/09/04 00:40:41;;;;;;;17.75;9.03;;;;;;;10.66;75.84;97345.55;1801232;78;25704;-86
2021/09/04 00:43:08;;;;;;;11.53;8.80;;;;;;;10.64;75.84;97353.87;1801344;79;27337;-86
2021/09/04 00:45:34;;;;;;;11.08;8.45;;;;;;;10.59;75.86;97351.52;1801275;78;25657;-85
2021/09/04 00:48:05;;;;;;;14.58;8.68;;;;;;;10.52;75.85;97352.03;1801355;79;25696;-86
2021/09/04 00:50:34;;;;;;;11.43;8.40;;;;;;;10.52;75.97;97353.39;1779417;79;26559;-85
2021/09/04 00:53:02;;;;;;;13.08;8.30;;;;;;;10.52;75.96;97354.22;1801329;78;25736;-83
2021/09/04 00:55:29;;;;;;;15.43;9.33;;;;;;;10.49;75.97;97348.44;1793439;78;27514;-83
2021/09/04 00:57:56;;;;;;;12.37;9.08;;;;;;;10.44;76.09;97346.36;1787209;79;25760;-82
2021/09/04 01:00:23;;;;;;;13.85;9.70;;;;;;;10.42;76.20;97343.04;1801325;78;26027;-83
2021/09/04 01:02:50;;;;;;;15.50;9.63;;;;;;;10.42;76.19;97347.09;1801377;78;26462;-81
2021/09/04 01:05:17;;;;;;;16.97;10.03;;;;;;;10.39;76.22;97341.59;1801328;78;25798;-82
2021/09/04 01:07:43;;;;;;;16.50;9.70;;;;;;;10.40;76.25;97348.64;1801225;78;27517;-85
2021/09/04 01:10:12;;;;;;;17.55;9.83;;;;;;;10.37;76.27;97348.26;1801002;78;25234;-83
2021/09/04 01:12:39;;;;;;;14.45;9.30;;;;;;;10.34;76.25;97347.33;1799602;78;25745;-84
2021/09/04 01:15:09;;;;;;;14.23;8.98;;;;;;;10.30;76.29;97348.26;1801344;78;25708;-83
2021/09/04 01:17:36;;;;;;;11.97;8.65;;;;;;;10.29;76.21;97353.86;1801299;79;25654;-83
2021/09/04 01:20:07;;;;;;;14.15;8.18;;;;;;;10.24;76.18;97349.12;1767906;79;25794;-84
2021/09/04 01:22:34;;;;;;;13.35;8.88;;;;;;;10.21;76.20;97352.75;1796583;79;25741;-80
2021/09/04 01:25:07;;;;;;;14.60;8.60;;;;;;;10.19;76.15;97356.16;1783941;78;25716;-83
2021/09/04 01:27:37;;;;;;;14.30;8.73;;;;;;;10.11;76.16;97353.15;1778939;78;25840;-85
2021/09/04 01:30:06;;;;;;;11.15;7.75;;;;;;;10.04;76.34;97350.95;1801228;78;25819;-84
2021/09/04 01:32:33;;;;;;;16.77;8.65;;;;;;;10.03;76.51;97347.95;1801327;78;27377;-84
2021/09/04 01:35:10;;;;;;;11.20;8.25;;;;;;;10.07;76.63;97355.94;1801191;78;25979;-84
2021/09/04 01:37:37;;;;;;;11.08;7.95;;;;;;;10.00;76.64;97355.13;1778937;78;25887;-85
2021/09/04 01:40:11;;;;;;;12.63;8.55;;;;;;;9.93;76.83;97352.42;1786707;78;26475;-84
2021/09/04 01:42:39;;;;;;;18.10;9.03;;;;;;;9.90;77.11;97351.48;1801303;78;25729;-84
2021/09/04 01:45:07;;;;;;;15.03;8.95;;;;;;;9.92;77.26;97348.59;1801324;78;28343;-82
2021/09/04 01:47:33;;;;;;;14.20;8.48;;;;;;;9.96;77.31;97345.80;1801242;79;26265;-80
2021/09/04 01:50:01;;;;;;;12.30;7.60;;;;;;;9.99;77.26;97348.91;1801262;78;25792;-85
2021/09/04 01:52:27;;;;;;;11.20;7.90;;;;;;;9.99;77.13;97344.03;1801345;79;25925;-85
2021/09/04 01:54:54;;;;;;;14.90;8.20;;;;;;;9.96;77.06;97346.63;1800848;78;25698;-85
2021/09/04 01:57:20;;;;;;;13.85;8.03;;;;;;;9.97;77.06;97342.06;1800779;78;28096;-82
2021/09/04 01:59:47;;;;;;;12.47;7.33;;;;;;;9.97;77.00;97340.20;1798774;78;25686;-85
2021/09/04 02:02:14;;;;;;;10.72;7.47;;;;;;;9.98;76.95;97339.68;1780996;78;25767;-85
2021/09/04 02:04:40;;;;;;;14.55;7.33;;;;;;;9.95;76.85;97341.44;1801243;79;25835;-85
2021/09/04 02:07:07;;;;;;;10.90;8.25;;;;;;;9.90;76.81;97337.20;1801262;78;25741;-85
2021/09/04 02:09:34;;;;;;;10.80;7.05;;;;;;;9.86;76.91;97340.00;1801028;79;28483;-85
2021/09/04 02:12:00;;;;;;;10.93;7.45;;;;;;;9.83;76.95;97339.89;1801113;78;25960;-84
2021/09/04 02:14:27;;;;;;;14.87;7.85;;;;;;;9.82;76.92;97336.88;1801059;78;25282;-85
2021/09/04 02:16:54;;;;;;;15.88;8.33;;;;;;;9.76;76.95;97329.64;1801202;78;25906;-87
2021/09/04 02:19:20;;;;;;;12.47;7.53;;;;;;;9.77;77.02;97329.12;1801271;79;25751;-88
2021/09/04 02:21:47;;;;;;;10.65;6.70;;;;;;;9.78;77.06;97323.50;1801155;79;28227;-86
2021/09/04 02:24:14;;;;;;;14.50;7.62;;;;;;;9.73;76.99;97326.83;1796691;78;26353;-86
2021/09/04 02:26:40;;;;;;;10.90;7.47;;;;;;;9.72;76.93;97326.52;1783580;78;25693;-86
2021/09/04 02:29:07;;;;;;;10.43;6.70;;;;;;;9.69;76.95;97327.45;1799350;78;25827;-86
2021/09/04 02:31:33;;;;;;;13.15;7.00;;;;;;;9.65;76.99;97328.41;1801280;78;25728;-87
2021/09/04 02:34:00;;;;;;;13.72;7.08;;;;;;;9.65;76.98;97332.44;1801213;78;27352;-87
2021/09/04 02:36:28;;;;;;;9.83;7.20;;;;;;;9.63;76.95;97330.47;1801186;78;25718;-88
2021/09/04 02:38:55;;;;;;;10.30;6.35;;;;;;;9.62;77.00;97326.11;1801203;78;25649;-86
2021/09/04 02:41:22;;;;;;;9.23;6.40;;;;;;;9.62;76.91;97331.50;1788243;78;26314;-87
2021/09/04 02:43:48;;;;;;;9.25;5.72;;;;;;;9.61;76.91;97323.11;1801286;78;25724;-86
2021/09/04 02:46:15;;;;;;;8.20;6.28;;;;;;;9.54;76.79;97329.54;1778875;78;26766;-85
2021/09/04 02:48:42;;;;;;;6.85;5.67;;;;;;;9.50;76.85;97326.94;1801079;79;25771;-86
2021/09/04 02:51:08;;;;;;;10.28;6.40;;;;;;;9.49;76.91;97324.76;1801268;78;25666;-85
2021/09/04 02:53:35;;;;;;;7.70;5.95;;;;;;;9.46;76.88;97330.55;1801234;78;25773;-86
2021/09/04 02:56:01;;;;;;;8.73;6.67;;;;;;;9.42;76.90;97336.03;1801348;78;25693;-86
2021/09/04 02:58:28;;;;;;;8.43;6.30;;;;;;;9.39;77.03;97329.73;1801213;78;27263;-85
2021/09/04 03:00:55;;;;;;;10.00;6.55;;;;;;;9.39;77.06;97322.99;1801144;78;25717;-84
2021/09/04 03:03:21;;;;;;;11.35;6.90;;;;;;;9.39;77.08;97327.03;1796973;78;25791;-85
2021/09/04 03:05:48;;;;;;;10.80;7.53;;;;;;;9.35;77.07;97327.13;1783456;78;25802;-86
2021/09/04 03:08:14;;;;;;;9.85;7.00;;;;;;;9.31;77.19;97324.52;1801201;78;25711;-85
2021/09/04 03:10:41;;;;;;;14.50;8.15;;;;;;;9.32;77.29;97327.01;1801267;79;28227;-86
2021/09/04 03:13:07;;;;;;;11.88;7.85;;;;;;;9.32;77.30;97324.83;1785431;78;25885;-86
2021/09/04 03:15:35;;;;;;;10.00;7.47;;;;;;;9.30;77.31;97319.64;1789367;79;25729;-82
2021/09/04 03:18:01;;;;;;;9.93;6.83;;;;;;;9.29;77.34;97314.48;1785937;80;25756;-85
2021/09/04 03:20:28;;;;;;;12.68;7.20;;;;;;;9.28;77.25;97323.60;1785912;80;26031;-85
2021/09/04 03:22:54;;;;;;;10.65;7.00;;;;;;;9.25;77.23;97318.62;1785841;80;27341;-85
2021/09/04 03:25:21;;;;;;;12.70;7.75;;;;;;;9.26;77.22;97324.31;1785542;79;25715;-87
2021/09/04 03:27:48;;;;;;;11.45;7.30;;;;;;;9.25;77.16;97319.97;1786107;79;25685;-86
2021/09/04 03:30:14;;;;;;;12.37;6.40;;;;;;;9.24;77.16;97320.48;1796368;78;26437;-87
2021/09/04 03:32:41;;;;;;;11.35;6.50;;;;;;;9.25;77.15;97324.00;1796506;79;25235;-88
2021/09/04 03:35:08;;;;;;;10.58;6.40;;;;;;;9.24;77.08;97317.78;1762956;81;27283;-86
2021/09/04 03:37:35;;;;;;;14.70;6.80;;;;;;;9.20;77.12;97323.26;1795173;79;25720;-88
2021/09/04 03:40:02;;;;;;;15.55;7.35;;;;;;;9.20;77.11;97325.13;1774818;78;25455;-89
2021/09/04 03:42:29;;;;;;;10.40;7.37;;;;;;;9.18;77.05;97337.44;1796597;79;25756;-87
2021/09/04 03:44:56;;;;;;;8.70;6.85;;;;;;;9.15;77.14;97337.05;1763106;81;25733;-88
2021/09/04 03:47:22;;;;;;;9.75;6.08;;;;;;;9.15;77.23;97338.39;1796542;79;27477;-85
2021/09/04 03:49:49;;;;;;;8.78;5.80;;;;;;;9.13;77.23;97333.72;1757997;81;25275;-88
2021/09/04 03:52:16;;;;;;;9.40;5.45;;;;;;;9.06;77.02;97332.89;1778418;79;25754;-88
2021/09/04 03:54:42;;;;;;;9.60;6.47;;;;;;;8.99;77.02;97335.03;1796778;79;25746;-88
2021/09/04 03:57:09;;;;;;;10.10;6.17;;;;;;;8.96;77.13;97330.05;1796874;79;25683;-87
2021/09/04 03:59:35;;;;;;;10.70;6.35;;;;;;;8.94;77.18;97337.48;1796855;78;27347;-87
2021/09/04 04:02:02;;;;;;;9.83;6.72;;;;;;;8.92;77.23;97335.54;1796641;79;25965;-87
2021/09/04 04:04:29;;;;;;;13.90;7.67;;;;;;;8.89;77.36;97333.24;1796699;79;25670;-88
2021/09/04 04:06:56;;;;;;;12.80;7.55;;;;;;;8.90;77.48;97338.95;1774521;79;25819;-88
2021/09/04 04:09:22;;;;;;;14.95;8.15;;;;;;;8.91;77.67;97335.73;1796795;79;25754;-89
2021/09/04 04:11:49;;;;;;;14.38;8.83;;;;;;;8.88;77.67;97334.27;1774600;79;27115;-90
2021/09/04 04:14:15;;;;;;;15.38;8.73;;;;;;;8.89;77.89;97337.80;1769618;77;25739;-87
2021/09/04 04:16:42;;;;;;;36.35;9.60;;;;;;;8.91;78.12;97331.19;1787021;79;26295;-88
2021/09/04 04:19:09;;;;;;;13.22;8.50;;;;;;;8.92;78.05;97332.84;1801507;78;25795;-86
2021/09/04 04:21:36;;;;;;;14.40;8.15;;;;;;;8.93;78.15;97342.59;1801608;78;25668;-88
2021/09/04 04:24:04;;;;;;;13.03;7.97;;;;;;;8.98;78.15;97344.13;1801092;77;28269;-87
2021/09/04 04:26:31;;;;;;;12.85;8.30;;;;;;;9.02;78.23;97350.78;1789640;78;25778;-86
2021/09/04 04:28:57;;;;;;;12.75;8.80;;;;;;;9.07;78.20;97346.63;1791558;78;25731;-89
2021/09/04 04:31:24;;;;;;;11.60;7.72;;;;;;;9.06;78.15;97349.04;1779271;78;25789;-84
2021/09/04 04:33:50;;;;;;;15.13;8.20;;;;;;;9.07;78.09;97356.05;1801641;78;25776;-89
2021/09/04 04:36:17;;;;;;;15.08;8.63;;;;;;;9.02;78.07;97353.48;1801592;78;27364;-87
2021/09/04 04:38:43;;;;;;;10.70;8.20;;;;;;;9.03;78.16;97356.48;1801380;79;25734;-89
2021/09/04 04:41:10;;;;;;;13.83;9.20;;;;;;;9.03;78.17;97356.48;1801571;77;26441;-86
2021/09/04 04:43:37;;;;;;;16.27;8.88;;;;;;;9.01;78.25;97349.13;1801623;79;26411;-88
2021/09/04 04:46:03;;;;;;;17.32;8.00;;;;;;;9.03;78.34;97350.27;1801689;78;26348;-87
2021/09/04 04:48:30;;;;;;;12.35;8.25;;;;;;;9.08;78.37;97359.06;1801561;79;27347;-90
2021/09/04 04:50:57;;;;;;;14.13;8.20;;;;;;;9.12;78.42;97365.20;1801462;78;25755;-87
2021/09/04 04:53:23;;;;;;;12.60;7.50;;;;;;;9.13;78.46;97358.78;1779235;78;25286;-89
2021/09/04 04:55:50;;;;;;;11.60;8.28;;;;;;;9.11;78.44;97357.32;1801549;79;25829;-88
2021/09/04 04:58:16;;;;;;;11.05;7.72;;;;;;;9.12;78.61;97352.25;1797057;78;25730;-89
2021/09/04 05:00:43;;;;;;;11.12;7.75;;;;;;;9.17;78.72;97351.14;1769978;79;27422;-88
2021/09/04 05:03:09;;;;;;;10.03;7.50;;;;;;;9.20;78.73;97348.84;1793995;77;25739;-88
2021/09/04 05:05:36;;;;;;;10.63;7.05;;;;;;;9.25;78.65;97353.63;1801729;77;25805;-87
2021/09/04 05:08:04;;;;;;;11.70;7.00;;;;;;;9.28;78.71;97353.23;1801635;78;25903;-87
2021/09/04 05:10:31;;;;;;;12.45;7.55;;;;;;;9.31;78.72;97350.94;1801541;77;25779;-88
2021/09/04 05:12:57;;;;;;;17.23;8.88;;;;;;;9.34;78.80;97355.09;1789074;78;28157;-88
2021/09/04 05:15:24;;;;;;;14.95;9.23;;;;;;;9.36;78.91;97357.06;1772567;79;26210;-84
2021/09/04 05:17:50;;;;;;;14.87;9.73;;;;;;;9.42;78.97;97358.13;1795786;78;25762;-88
2021/09/04 05:20:17;;;;;;;15.72;9.05;;;;;;;9.47;79.02;97359.16;1773308;79;26404;-87
2021/09/04 05:22:46;;;;;;;12.78;8.48;;;;;;;9.52;78.95;97358.03;1802760;79;25727;-87
2021/09/04 05:25:12;;;;;;;13.58;8.20;;;;;;;9.58;79.02;97359.89;1804744;79;28439;-88
2021/09/04 05:27:39;;;;;;;13.78;8.88;;;;;;;9.63;79.13;97356.07;1778315;79;25762;-87
2021/09/04 05:30:06;;;;;;;17.02;9.68;;;;;;;9.72;79.21;97358.03;1787699;79;25726;-87
2021/09/04 05:32:33;;;;;;;13.75;9.03;;;;;;;9.82;79.28;97354.92;1805308;79;25717;-89
2021/09/04 05:35:00;;;;;;;13.08;9.48;;;;;;;9.91;79.29;97352.31;1805351;78;25976;-86
2021/09/04 05:37:27;;;;;;;16.07;10.20;;;;;;;9.97;79.26;97352.84;1783891;79;27361;-87
2021/09/04 05:39:55;;;;;;;15.03;10.30;;;;;;;10.06;79.41;97351.58;1772701;79;25664;-86
2021/09/04 05:42:22;;;;;;;15.05;9.18;;;;;;;10.14;79.50;97351.39;1804901;79;25760;-88
2021/09/04 05:44:48;;;;;;;15.53;9.33;;;;;;;10.23;79.46;97354.20;1799798;79;25843;-84
2021/09/04 05:47:16;;;;;;;17.52;8.55;;;;;;;10.30;79.38;97355.00;1799888;79;25701;-86
2021/09/04 05:49:42;;;;;;;12.00;9.30;;;;;;;10.38;79.40;97360.20;1799981;78;27432;-86
2021/09/04 05:52:09;;;;;;;13.32;9.48;;;;;;;10.43;79.56;97356.33;1799811;79;25683;-84
2021/09/04 05:54:35;;;;;;;14.95;9.33;;;;;;;10.52;79.71;97354.73;1799875;79;26299;-85
2021/09/04 05:57:02;;;;;;;13.25;9.78;;;;;;;10.58;79.74;97352.55;1799804;79;25771;-84
2021/09/04 05:59:29;;;;;;;14.13;9.93;;;;;;;10.66;79.79;97352.30;1799885;79;25194;-86
2021/09/04 06:01:56;;;;;;;15.25;10.88;;;;;;;10.73;79.75;97353.95;1799928;79;27181;-85
2021/09/04 06:04:22;;;;;;;16.77;11.00;;;;;;;10.81;79.83;97346.13;1799785;79;25656;-85
2021/09/04 06:06:49;;;;;;;13.45;9.58;;;;;;;10.89;79.85;97345.88;1799854;79;25268;-82
2021/09/04 06:09:15;;;;;;;12.15;9.30;;;;;;;10.96;79.73;97352.62;1799771;78;26436;-83
2021/09/04 06:11:42;;;;;;;13.53;9.33;;;;;;;11.04;79.70;97353.19;1799846;78;25724;-85
2021/09/04 06:14:09;;;;;;;17.02;10.90;;;;;;;11.12;79.60;97352.92;1796644;78;27231;-84
2021/09/04 06:16:36;;;;;;;15.75;10.82;;;;;;;11.19;79.56;97355.61;1785422;80;26482;-84
2021/09/04 06:19:03;;;;;;;17.52;11.03;;;;;;;11.27;79.63;97353.16;1785880;80;25746;-84
2021/09/04 06:21:29;;;;;;;17.70;11.08;;;;;;;11.35;79.55;97345.62;1785866;80;25753;-83
2021/09/04 06:23:56;;;;;;;13.62;10.20;;;;;;;11.43;79.58;97347.25;1785783;80;25760;-81
2021/09/04 06:26:22;;;;;;;16.82;10.30;;;;;;;11.53;79.62;97350.30;1777036;78;27416;-83
2021/09/04 06:28:49;;;;;;;17.82;11.00;;;;;;;11.63;79.62;97343.05;1778757;78;25827;-83
2021/09/04 06:31:16;;;;;;;15.58;10.40;;;;;;;11.73;79.65;97344.73;1774160;80;25262;-84
2021/09/04 06:33:42;;;;;;;15.15;10.65;;;;;;;11.78;79.50;97345.77;1771858;80;25832;-83
2021/09/04 06:36:09;;;;;;;15.83;10.32;;;;;;;11.81;79.39;97348.05;1770994;80;25721;-83
2021/09/04 06:38:35;;;;;;;14.50;11.03;;;;;;;11.88;79.48;97344.75;1774407;80;27173;-84
2021/09/04 06:41:02;;;;;;;15.13;11.30;;;;;;;11.99;79.44;97346.42;1768477;80;26009;-84
2021/09/04 06:43:28;;;;;;;15.40;11.53;;;;;;;12.10;79.44;97345.70;1776202;80;25765;-84
2021/09/04 06:45:55;;;;;;;18.12;11.60;;;;;;;12.19;79.39;97337.62;1777741;79;25910;-85
2021/09/04 06:48:22;;;;;;;14.18;10.70;;;;;;;12.30;79.46;97345.53;1775746;79;25818;-84
2021/09/04 06:50:48;;;;;;;16.37;11.22;;;;;;;12.43;79.51;97340.81;1771132;79;26931;-81
2021/09/04 06:53:15;;;;;;;13.83;10.63;;;;;;;12.52;79.36;97343.52;1772771;80;25247;-83
2021/09/04 06:55:41;;;;;;;14.45;10.38;;;;;;;12.61;79.35;97343.51;1773427;80;25777;-83
2021/09/04 06:58:08;;;;;;;15.25;10.00;;;;;;;12.71;79.24;97348.92;1769977;79;25669;-84
2021/09/04 07:00:35;;;;;;;13.45;10.32;;;;;;;12.78;79.22;97353.22;1776613;80;25751;-82
2021/09/04 07:03:01;;;;;;;15.68;10.50;;;;;;;12.83;78.99;97353.88;1776660;79;27594;-81
2021/09/04 07:05:28;;;;;;;15.53;10.50;;;;;;;12.91;79.11;97357.66;1776496;80;25771;-82
2021/09/04 07:07:54;;;;;;;14.80;9.83;;;;;;;13.00;79.30;97353.58;1769851;80;25766;-83
2021/09/04 07:10:21;;;;;;;15.35;10.32;;;;;;;13.09;79.08;97344.59;1774043;80;25617;-83
2021/09/04 07:12:47;;;;;;;13.18;10.20;;;;;;;13.19;79.14;97349.80;1776500;80;25787;-82
2021/09/04 07:15:14;;;;;;;12.88;10.03;;;;;;;13.32;79.11;97350.97;1791038;78;28134;-83
2021/09/04 07:17:41;;;;;;;15.00;10.85;;;;;;;13.46;79.19;97347.55;1796259;78;25673;-83
2021/09/04 07:20:08;;;;;;;13.18;9.83;;;;;;;13.61;79.21;97347.13;1796329;77;25735;-83
2021/09/04 07:22:35;;;;;;;11.22;9.33;;;;;;;13.73;79.10;97346.63;1796286;77;25782;-83
2021/09/04 07:25:02;;;;;;;16.35;9.80;;;;;;;13.86;79.11;97346.42;1796131;79;25662;-83
2021/09/04 07:27:29;;;;;;;14.45;10.85;;;;;;;14.03;79.10;97346.53;1796333;79;27337;-84
2021/09/04 07:29:55;;;;;;;14.40;10.05;;;;;;;14.18;78.80;97347.44;1796215;79;25731;-84
2021/09/04 07:32:22;;;;;;;17.52;9.73;;;;;;;14.35;78.68;97346.52;1796259;78;25806;-84
2021/09/04 07:34:49;;;;;;;13.68;9.80;;;;;;;14.57;78.51;97337.25;1800296;78;25846;-84
2021/09/04 07:37:15;;;;;;;14.73;10.28;;;;;;;14.88;78.59;97344.68;1832901;77;25245;-84
2021/09/04 07:39:42;;;;;;;17.75;9.20;;;;;;;15.22;78.23;97343.74;1832126;77;27415;-84
2021/09/04 07:42:09;;;;;;;14.30;9.70;;;;;;;15.59;77.76;97343.38;1840758;77;26515;-84
2021/09/04 07:44:35;;;;;;;13.93;10.35;;;;;;;15.92;77.27;97348.88;1825042;77;25758;-83
2021/09/04 07:47:02;;;;;;;18.00;9.15;;;;;;;16.30;76.84;97340.50;1824915;77;25733;-84
2021/09/04 07:49:29;;;;;;;15.75;9.78;;;;;;;16.70;76.52;97343.00;1829050;77;25696;-86
2021/09/04 07:51:56;;;;;;;12.33;9.40;;;;;;;17.07;76.09;97339.13;1839358;77;27407;-84
2021/09/04 07:54:22;;;;;;;15.00;9.38;;;;;;;17.48;75.53;97346.70;1834130;77;25751;-82
2021/09/04 07:56:49;;;;;;;23.02;9.50;;;;;;;17.87;75.06;97342.48;1838501;77;25730;-85
2021/09/04 07:59:15;;;;;;;16.40;9.20;;;;;;;18.19;75.03;97335.10;1781926;78;26441;-84
2021/09/04 08:01:42;;;;;;;15.32;9.35;;;;;;;18.57;74.25;97334.55;1773829;78;25290;-84
2021/09/04 08:04:09;;;;;;;9.63;8.35;;;;;;;18.91;73.58;97337.23;1769563;79;27448;-84
2021/09/04 08:06:35;;;;;;;10.82;8.23;;;;;;;19.31;72.94;97334.39;1776884;77;25799;-86
2021/09/04 08:09:02;;;;;;;11.50;8.65;;;;;;;19.69;72.66;97336.68;1795660;77;25737;-87
2021/09/04 08:11:28;;;;;;;15.60;8.55;;;;;;;20.12;71.68;97343.59;1774646;77;25899;-86
2021/09/04 08:13:55;;;;;;;11.18;8.80;;;;;;;20.55;71.14;97335.91;1773452;78;25735;-84
2021/09/04 08:16:22;;;;;;;11.80;8.45;;;;;;;20.95;70.26;97332.24;1794117;79;28134;-86
2021/09/04 08:18:48;;;;;;;11.90;9.18;;;;;;;21.34;69.58;97337.06;1785727;78;25848;-85
2021/09/04 08:21:15;;;;;;;12.05;9.23;;;;;;;21.68;68.83;97332.48;1785283;79;25823;-87
2021/09/04 08:23:41;;;;;;;10.43;7.85;;;;;;;22.06;68.22;97339.13;1783044;78;25890;-85
2021/09/04 08:26:08;;;;;;;12.75;8.45;;;;;;;22.41;67.31;97333.87;1762545;81;25685;-85
2021/09/04 08:28:35;;;;;;;10.13;8.23;;;;;;;22.64;66.56;97330.34;1774426;78;27363;-85
2021/09/04 08:31:01;;;;;;;10.65;8.65;;;;;;;22.90;65.96;97337.00;1774316;79;25774;-84
2021/09/04 08:33:28;;;;;;;12.50;8.15;;;;;;;23.18;64.99;97334.75;1787496;79;25748;-84
2021/09/04 08:35:55;;;;;;;9.38;8.18;;;;;;;23.20;64.45;97335.25;1760894;80;25741;-83
2021/09/04 08:38:21;;;;;;;12.10;8.53;;;;;;;23.40;63.64;97338.88;1745583;80;25684;-83
2021/09/04 08:40:49;;;;;;;13.28;9.60;;;;;;;23.44;63.48;97339.35;1753371;80;27492;-85
2021/09/04 08:43:16;;;;;;;10.93;9.13;;;;;;;23.39;62.90;97335.86;1754295;80;25703;-84
2021/09/04 08:45:44;;;;;;;9.33;8.20;;;;;;;23.37;62.45;97338.91;1762331;80;25220;-83
2021/09/04 08:48:12;;;;;;;11.95;8.63;;;;;;;23.49;61.74;97339.86;1757378;80;26057;-84
2021/09/04 08:50:39;;;;;;;11.45;9.05;;;;;;;23.59;61.59;97336.98;1759029;80;25895;-84
2021/09/04 08:53:06;;;;;;;11.12;8.50;;;;;;;23.75;61.07;97340.36;1749870;80;27186;-84
2021/09/04 08:55:33;;;;;;;11.48;9.15;;;;;;;23.81;60.56;97348.24;1756774;80;25864;-83
2021/09/04 08:57:59;;;;;;;10.88;9.13;;;;;;;23.81;59.47;97341.35;1752912;80;25764;-84
2021/09/04 09:00:33;;;;;;;10.93;9.23;;;;;;;23.62;59.32;97338.60;1763719;80;25670;-84
2021/09/04 09:03:01;;;;;;;9.53;8.40;;;;;;;23.72;59.32;97350.59;1754107;80;25248;-83
2021/09/04 09:05:43;;;;;;;11.70;8.65;;;;;;;23.87;58.82;97347.63;1754768;80;27254;-85
2021/09/04 09:08:23;;;;;;;11.15;8.90;;;;;;;23.52;57.57;97344.81;1755206;80;25796;-83
2021/09/04 09:10:52;;;;;;;9.90;8.90;;;;;;;23.20;57.56;97341.31;1774339;80;25715;-83
2021/09/04 09:13:21;;;;;;;11.15;9.03;;;;;;;22.97;57.91;97344.34;1763494;80;25856;-82
2021/09/04 09:15:51;;;;;;;12.07;9.05;;;;;;;22.90;57.86;97342.50;1795022;78;25759;-83
2021/09/04 09:18:18;;;;;;;10.00;8.78;;;;;;;22.83;58.21;97339.25;1785935;79;27366;-84
2021/09/04 09:21:01;;;;;;;12.90;9.45;;;;;;;22.98;58.09;97341.84;1745597;80;25835;-83
2021/09/04 09:23:29;;;;;;;13.10;9.35;;;;;;;23.21;57.63;97332.77;1781003;79;25930;-83
2021/09/04 09:26:07;;;;;;;13.68;10.65;;;;;;;22.97;56.84;97331.95;1755857;79;25741;-83
2021/09/04 09:28:34;;;;;;;10.28;8.98;;;;;;;22.97;56.99;97341.58;1796045;78;25638;-83
2021/09/04 09:31:00;;;;;;;13.78;9.73;;;;;;;23.08;56.93;97338.16;1795840;78;28158;-83
2021/09/04 09:33:28;;;;;;;13.62;9.13;;;;;;;23.14;56.70;97339.20;1781864;79;25681;-83
2021/09/04 09:35:58;;;;;;;12.68;9.08;;;;;;;23.42;56.47;97344.92;1769485;78;25722;-83
2021/09/04 09:38:31;;;;;;;15.38;9.55;;;;;;;23.68;56.36;97342.09;1782729;78;26028;-83
2021/09/04 09:40:59;;;;;;;10.68;8.88;;;;;;;23.93;56.05;97338.97;1770617;78;25794;-83
2021/09/04 09:43:33;;;;;;;14.90;10.10;;;;;;;23.89;55.68;97340.70;1794586;79;27257;-86
2021/09/04 09:46:07;;;;;;;13.38;10.30;;;;;;;23.71;55.31;97338.75;1772230;78;25731;-83
2021/09/04 09:48:37;;;;;;;13.38;9.30;;;;;;;23.57;55.26;97340.59;1785641;79;26412;-83
2021/09/04 09:51:07;;;;;;;11.15;9.08;;;;;;;23.58;55.24;97342.23;1785087;79;26494;-82
2021/09/04 09:53:33;;;;;;;11.55;9.83;;;;;;;23.70;55.11;97336.55;1792901;79;26277;-85
2021/09/04 09:56:01;;;;;;;12.43;9.78;;;;;;;23.88;55.21;97336.30;1771641;80;27439;-83
2021/09/04 09:58:29;;;;;;;12.40;10.00;;;;;;;24.00;54.30;97333.91;1770349;80;25291;-83
2021/09/04 10:00:58;;;;;;;11.65;9.83;;;;;;;24.09;54.20;97335.42;1770841;80;25755;-83
2021/09/04 10:03:28;;;;;;;12.68;10.43;;;;;;;24.23;54.02;97338.27;1753563;80;25909;-86
2021/09/04 10:05:56;;;;;;;14.60;9.68;;;;;;;24.27;53.79;97342.08;1771043;80;25678;-87
2021/09/04 10:08:25;;;;;;;13.08;9.65;;;;;;;24.14;53.19;97353.84;1770472;80;27478;-84
2021/09/04 10:10:52;;;;;;;12.98;10.53;;;;;;;23.95;52.94;97346.38;1770679;80;25742;-87
2021/09/04 10:13:19;;;;;;;11.78;9.53;;;;;;;23.78;52.83;97341.15;1768830;80;25722;-84
2021/09/04 10:15:50;;;;;;;12.37;9.35;;;;;;;23.74;53.05;97338.16;1777973;78;26374;-84
2021/09/04 10:18:22;;;;;;;12.47;9.28;;;;;;;23.88;52.92;97330.79;1788235;78;26276;-83
2021/09/04 10:21:08;;;;;;;11.15;9.40;;;;;;;24.07;53.32;97322.49;1766054;78;27401;-83
2021/09/04 10:23:42;;;;;;;11.78;9.90;;;;;;;24.23;53.46;97327.24;1749238;79;26466;-82
2021/09/04 10:26:38;;;;;;;12.93;9.88;;;;;;;24.26;53.16;97325.27;1756262;80;25781;-82
2021/09/04 10:29:14;;;;;;;10.85;9.28;;;;;;;24.13;52.50;97331.52;1775002;78;26576;-82
2021/09/04 10:31:59;;;;;;;11.25;9.70;;;;;;;23.91;52.17;97323.28;1789432;80;25754;-82
2021/09/04 10:34:36;;;;;;;13.15;9.80;;;;;;;23.51;52.23;97328.02;1779272;78;28135;-82
2021/09/04 10:37:17;;;;;;;11.95;9.70;;;;;;;23.20;52.66;97322.86;1764403;79;25900;-82
2021/09/04 10:40:09;;;;;;;12.13;9.85;;;;;;;23.02;53.08;97318.14;1772844;80;26304;-82
2021/09/04 10:42:44;;;;;;;;;;;;;;;22.93;52.96;97321.28;1788306;79;25706;-81
2021/09/04 10:45:15;;;;;;;13.70;9.63;;;;;;;22.96;52.67;97320.67;1763331;78;25674;-83
2021/09/04 10:47:55;;;;;;;11.85;10.32;;;;;;;23.05;53.21;97316.19;1781842;78;28258;-82
2021/09/04 10:50:33;;;;;;;12.20;10.35;;;;;;;23.16;53.44;97323.20;1764035;80;25693;-83
2021/09/04 10:53:07;;;;;;;11.22;10.00;;;;;;;23.31;53.38;97319.41;1777060;80;26239;-82
2021/09/04 10:55:42;;;;;;;14.23;10.32;;;;;;;23.45;53.09;97316.20;1772052;78;26555;-82
2021/09/04 10:58:15;;;;;;;14.63;9.83;;;;;;;23.61;53.05;97314.09;1772106;78;25948;-84
2021/09/04 11:00:52;;;;;;;12.43;10.25;;;;;;;23.69;52.50;97317.00;1783283;78;27508;-82
2021/09/04 11:03:21;;;;;;;11.97;9.88;;;;;;;23.75;52.19;97317.75;1764856;77;25663;-82
2021/09/04 11:05:56;;;;;;;14.38;9.78;;;;;;;23.79;52.36;97316.02;1829220;77;25674;-83
2021/09/04 11:08:35;;;;;;;14.58;10.30;;;;;;;23.87;52.23;97318.13;1784629;78;26534;-82
2021/09/04 11:11:22;;;;;;;17.45;10.72;;;;;;;24.04;51.69;97317.57;1779559;78;25760;-88
2021/09/04 11:13:54;;;;;;;13.28;9.85;;;;;;;24.08;51.91;97314.48;1783611;80;28084;-82
2021/09/04 11:16:32;;;;;;;13.68;10.82;;;;;;;23.90;51.52;97313.40;1780164;78;25660;-83
2021/09/04 11:19:15;;;;;;;15.35;10.43;;;;;;;23.77;52.05;97321.03;1765666;78;25829;-83
2021/09/04 11:22:01;;;;;;;12.53;10.13;;;;;;;23.47;52.14;97318.66;1766083;78;25757;-83
2021/09/04 11:24:38;;;;;;;12.23;9.75;;;;;;;23.48;52.54;97317.55;1790760;78;25678;-84
2021/09/04 11:27:15;;;;;;;12.30;10.40;;;;;;;23.57;52.34;97314.42;1800297;78;27363;-85
2021/09/04 11:29:56;;;;;;;11.78;10.23;;;;;;;23.63;52.12;97307.18;1766137;80;25853;-82
2021/09/04 11:32:24;;;;;;;12.95;10.88;;;;;;;23.65;51.69;97306.89;1784241;79;25991;-82